Time;durP1;ratioP1;P1;durP2;ratioP2;P2;SDS_P1;SDS_P2;PMS_P1;PMS_P2;Temp;Humidity;BMP_temperature;BMP_pressure;BME280_temperature;BME280_humidity;BME280_pressure;Samples;Min_cycle;Max_cycle;Signal;HPM_P1;HPM_P2
2023/08/10 00:01:51;;;;;;;5.70;2.65;;;13.90;99.90;;;;;;6197569;23;20031;-69
2023/08/10 00:04:17;;;;;;;2.88;2.38;;;13.90;99.90;;;;;;6168713;23;20008;-69
2023/08/10 00:06:43;;;;;;;4.47;2.33;;;13.90;99.90;;;;;;6197334;23;20413;-69
2023/08/10 00:09:08;;;;;;;3.40;2.88;;;13.90;99.90;;;;;;6195729;23;20005;-69
2023/08/10 00:11:38;;;;;;;4.90;2.92;;;13.90;99.90;;;;;;6169032;23;20016;-69
2023/08/10 00:14:03;;;;;;;4.15;2.40;;;13.90;99.90;;;;;;6195667;23;20372;-69
2023/08/10 00:16:30;;;;;;;5.13;2.90;;;13.90;99.90;;;;;;6195851;23;20004;-69
2023/08/10 00:18:56;;;;;;;3.65;2.65;;;13.80;99.90;;;;;;6195128;23;20463;-69
2023/08/10 00:21:21;;;;;;;6.20;3.03;;;13.90;99.90;;;;;;6195886;23;20008;-69
2023/08/10 00:23:47;;;;;;;8.15;3.67;;;13.80;99.90;;;;;;6194967;23;20008;-69
2023/08/10 00:26:12;;;;;;;5.82;3.22;;;13.80;99.90;;;;;;6194471;23;20007;-69
2023/08/10 00:28:38;;;;;;;5.07;3.20;;;13.90;99.90;;;;;;6194528;23;20008;-70
2023/08/10 00:31:04;;;;;;;3.80;2.65;;;13.90;99.90;;;;;;6193967;23;20088;-69
2023/08/10 00:33:30;;;;;;;4.55;2.97;;;13.90;99.90;;;;;;6194921;23;20084;-69
2023/08/10 00:35:56;;;;;;;4.88;3.05;;;13.90;99.90;;;;;;6167605;23;20013;-69
2023/08/10 00:38:22;;;;;;;6.63;2.75;;;13.80;99.90;;;;;;6195630;23;20013;-69
2023/08/10 00:40:47;;;;;;;4.45;3.22;;;13.80;99.90;;;;;;6196439;23;20044;-69
2023/08/10 00:43:13;;;;;;;5.38;3.20;;;13.90;99.90;;;;;;6195487;23;20362;-69
2023/08/10 00:45:39;;;;;;;5.03;2.85;;;13.90;99.90;;;;;;6195416;23;20096;-69
2023/08/10 00:48:05;;;;;;;7.07;3.13;;;13.90;99.90;;;;;;6196318;23;20035;-69
2023/08/10 00:50:31;;;;;;;6.50;2.88;;;13.80;99.90;;;;;;6194844;23;20039;-69
2023/08/10 00:52:56;;;;;;;4.60;2.67;;;13.80;99.90;;;;;;6193200;23;20036;-69
2023/08/10 00:55:22;;;;;;;3.17;2.50;;;13.80;99.90;;;;;;6196351;23;20467;-69
2023/08/10 00:57:48;;;;;;;5.30;2.80;;;13.80;99.90;;;;;;6169355;23;20057;-69
2023/08/10 01:00:14;;;;;;;6.18;3.08;;;13.70;99.90;;;;;;6194478;23;20144;-69
2023/08/10 01:02:40;;;;;;;5.32;3.13;;;13.80;99.90;;;;;;6165940;23;20001;-69
2023/08/10 01:05:11;;;;;;;3.47;2.80;;;13.70;99.90;;;;;;6190992;23;20001;-69
2023/08/10 01:07:42;;;;;;;4.72;2.97;;;13.70;99.90;;;;;;6192994;23;20008;-69
2023/08/10 01:10:26;;;;;;;6.60;2.72;;;13.70;99.90;;;;;;6165187;23;20022;-69
2023/08/10 01:13:11;;;;;;;7.18;3.58;;;13.70;99.90;;;;;;6194433;23;20035;-69
2023/08/10 01:15:49;;;;;;;5.82;3.55;;;13.60;99.90;;;;;;6192002;23;20001;-69
2023/08/10 01:18:18;;;;;;;8.27;3.20;;;13.60;99.90;;;;;;6193740;23;20004;-69
2023/08/10 01:20:47;;;;;;;5.45;3.60;;;13.50;99.90;;;;;;6191993;23;20276;-70
2023/08/10 01:23:22;;;;;;;5.18;3.50;;;13.50;99.90;;;;;;6193987;23;20310;-70
2023/08/10 01:25:49;;;;;;;4.85;3.00;;;13.50;99.90;;;;;;6193871;23;20180;-70
2023/08/10 01:28:15;;;;;;;2.90;2.30;;;13.50;99.90;;;;;;6194707;23;19996;-70
2023/08/10 01:30:41;;;;;;;4.32;2.03;;;13.40;99.90;;;;;;6192692;23;20016;-69
2023/08/10 01:33:08;;;;;;;4.95;3.15;;;13.40;99.90;;;;;;6191678;23;20366;-69
2023/08/10 01:35:37;;;;;;;6.15;3.08;;;13.40;99.90;;;;;;6188224;23;20452;-70
2023/08/10 01:38:04;;;;;;;7.43;3.60;;;13.40;99.90;;;;;;6189522;23;20012;-69
2023/08/10 01:40:30;;;;;;;3.17;2.78;;;13.40;99.90;;;;;;6166816;23;20036;-70
2023/08/10 01:42:56;;;;;;;5.22;2.88;;;13.30;99.90;;;;;;6194286;23;20023;-70
2023/08/10 01:45:22;;;;;;;5.85;3.35;;;13.40;99.90;;;;;;6192974;23;20011;-70
2023/08/10 01:47:50;;;;;;;5.53;3.50;;;13.40;99.90;;;;;;6196694;23;20038;-69
2023/08/10 01:50:19;;;;;;;6.30;3.75;;;13.40;99.90;;;;;;6163453;23;20027;-69
2023/08/10 01:53:15;;;;;;;4.82;3.38;;;13.40;99.90;;;;;;6161651;23;20067;-69
2023/08/10 01:55:41;;;;;;;6.93;3.10;;;13.30;99.90;;;;;;6189532;23;20046;-70
2023/08/10 01:58:07;;;;;;;5.95;3.17;;;13.30;99.90;;;;;;6188254;23;20501;-69
2023/08/10 02:00:37;;;;;;;5.13;3.00;;;13.30;99.90;;;;;;6188514;23;20009;-69
2023/08/10 02:03:03;;;;;;;6.00;3.50;;;13.30;99.90;;;;;;6193738;23;20008;-69
2023/08/10 02:05:29;;;;;;;6.38;3.72;;;13.30;99.90;;;;;;6193650;23;20012;-70
2023/08/10 02:07:55;;;;;;;7.10;3.95;;;13.30;99.90;;;;;;6196029;23;20004;-69
2023/08/10 02:10:20;;;;;;;5.82;3.45;;;13.30;99.90;;;;;;6191689;23;20020;-70
2023/08/10 02:12:46;;;;;;;4.93;3.47;;;13.30;99.90;;;;;;6191957;23;20299;-70
2023/08/10 02:15:12;;;;;;;7.00;4.13;;;13.20;99.90;;;;;;6192664;23;20008;-70
2023/08/10 02:17:38;;;;;;;7.38;4.30;;;13.20;99.90;;;;;;6193463;23;20503;-69
2023/08/10 02:20:11;;;;;;;8.30;4.35;;;13.20;99.90;;;;;;6192659;23;20313;-69
2023/08/10 02:22:39;;;;;;;6.25;4.03;;;13.20;99.90;;;;;;6196452;23;20404;-70
2023/08/10 02:25:05;;;;;;;8.57;4.32;;;13.30;99.90;;;;;;6192655;23;20214;-69
2023/08/10 02:27:31;;;;;;;6.05;3.78;;;13.30;99.90;;;;;;6192889;23;20177;-69
2023/08/10 02:29:57;;;;;;;8.20;4.43;;;13.30;99.90;;;;;;6191720;23;20036;-69
2023/08/10 02:32:22;;;;;;;7.85;3.97;;;13.30;99.90;;;;;;6195552;23;20482;-69
2023/08/10 02:34:48;;;;;;;8.52;4.13;;;13.30;99.90;;;;;;6166515;23;20066;-70
2023/08/10 02:37:13;;;;;;;7.55;4.78;;;13.30;99.90;;;;;;6196773;23;20035;-70
2023/08/10 02:39:39;;;;;;;6.85;3.95;;;13.30;99.90;;;;;;6168846;23;20021;-70
2023/08/10 02:42:05;;;;;;;8.23;4.57;;;13.30;99.90;;;;;;6195991;23;20467;-70
2023/08/10 02:44:31;;;;;;;10.95;4.60;;;13.30;99.90;;;;;;6196687;23;20016;-69
2023/08/10 02:46:56;;;;;;;8.35;4.65;;;13.30;99.90;;;;;;6168860;23;20008;-70
2023/08/10 02:49:22;;;;;;;8.85;4.88;;;13.30;99.90;;;;;;6195235;23;20400;-69
2023/08/10 02:51:47;;;;;;;9.98;4.68;;;13.30;99.90;;;;;;6197430;23;20008;-70
2023/08/10 02:54:13;;;;;;;8.75;4.70;;;13.30;99.90;;;;;;6196715;23;20279;-70
2023/08/10 02:56:38;;;;;;;8.70;4.43;;;13.30;99.90;;;;;;6197304;23;20012;-69
2023/08/10 02:59:04;;;;;;;8.52;3.97;;;13.40;99.90;;;;;;6195716;23;20381;-70
2023/08/10 03:01:30;;;;;;;9.90;4.72;;;13.40;99.90;;;;;;6169713;23;20005;-69
2023/08/10 03:03:55;;;;;;;11.13;4.75;;;13.40;99.90;;;;;;6169828;23;20512;-70
2023/08/10 03:06:21;;;;;;;7.18;4.47;;;13.40;99.90;;;;;;6197440;23;20039;-69
2023/08/10 03:08:47;;;;;;;8.80;4.78;;;13.30;99.90;;;;;;6197366;23;20110;-70
2023/08/10 03:11:13;;;;;;;12.52;4.78;;;13.30;99.90;;;;;;6197525;23;20059;-69
2023/08/10 03:13:38;;;;;;;9.70;4.88;;;13.30;99.90;;;;;;6196654;23;20325;-70
2023/08/10 03:16:04;;;;;;;11.00;5.40;;;13.30;99.90;;;;;;6196295;23;20333;-70
2023/08/10 03:18:29;;;;;;;8.50;4.57;;;13.20;99.90;;;;;;6197415;23;20333;-69
2023/08/10 03:20:55;;;;;;;7.53;4.55;;;13.30;99.90;;;;;;6196946;23;20011;-70
2023/08/10 03:23:21;;;;;;;8.98;5.25;;;13.30;99.90;;;;;;6168705;23;20055;-69
2023/08/10 03:25:46;;;;;;;9.02;4.93;;;13.40;99.90;;;;;;6196830;23;20013;-70
2023/08/10 03:28:12;;;;;;;8.15;4.32;;;13.30;99.90;;;;;;6196949;23;20009;-69
2023/08/10 03:30:39;;;;;;;8.25;5.03;;;13.40;99.90;;;;;;6194292;23;20309;-69
2023/08/10 03:33:05;;;;;;;7.53;4.60;;;13.40;99.90;;;;;;6196312;23;20027;-69
2023/08/10 03:35:31;;;;;;;13.05;4.68;;;13.30;99.90;;;;;;6195834;23;20009;-69
2023/08/10 03:37:57;;;;;;;9.52;4.95;;;13.30;99.90;;;;;;6196722;23;20062;-69
2023/08/10 03:40:22;;;;;;;9.05;4.72;;;13.30;99.90;;;;;;6196750;23;20029;-69
2023/08/10 03:42:48;;;;;;;8.35;4.43;;;13.30;99.90;;;;;;6196533;23;20560;-69
2023/08/10 03:45:13;;;;;;;7.30;3.65;;;13.30;99.90;;;;;;6195495;23;20095;-69
2023/08/10 03:47:39;;;;;;;9.60;4.53;;;13.30;99.90;;;;;;6196391;23;20314;-69
2023/08/10 03:50:06;;;;;;;6.93;4.03;;;13.30;99.90;;;;;;6194949;23;20484;-69
2023/08/10 03:52:31;;;;;;;6.88;4.10;;;13.20;99.90;;;;;;6196678;23;20004;-69
2023/08/10 03:54:57;;;;;;;7.97;4.35;;;13.30;99.90;;;;;;6195577;23;20122;-69
2023/08/10 03:57:23;;;;;;;9.45;4.22;;;13.30;99.90;;;;;;6196680;23;20432;-70
2023/08/10 03:59:48;;;;;;;8.02;4.25;;;13.20;99.90;;;;;;6194666;23;20020;-69
2023/08/10 04:02:14;;;;;;;7.40;3.83;;;13.20;99.90;;;;;;6195369;23;20577;-69
2023/08/10 04:04:40;;;;;;;8.27;4.35;;;13.30;99.90;;;;;;6195269;23;20004;-69
2023/08/10 04:07:07;;;;;;;8.63;4.68;;;13.20;99.90;;;;;;6196369;23;20008;-69
2023/08/10 04:09:33;;;;;;;9.70;4.65;;;13.20;99.90;;;;;;6196218;23;20012;-69
2023/08/10 04:11:59;;;;;;;10.38;4.70;;;13.20;99.90;;;;;;6195719;23;20001;-69
2023/08/10 04:14:25;;;;;;;12.60;4.47;;;13.20;99.90;;;;;;6195718;23;20266;-69
2023/08/10 04:16:51;;;;;;;10.85;4.68;;;13.20;99.90;;;;;;6193978;23;19996;-69
2023/08/10 04:19:17;;;;;;;7.88;4.40;;;13.20;99.90;;;;;;6190734;23;20004;-69
2023/08/10 04:21:44;;;;;;;7.45;4.30;;;13.20;99.90;;;;;;6195384;23;20044;-69
2023/08/10 04:24:10;;;;;;;7.82;3.97;;;13.20;99.90;;;;;;6196431;23;20353;-69
2023/08/10 04:26:36;;;;;;;8.77;4.40;;;13.20;99.90;;;;;;6195302;23;20090;-69
2023/08/10 04:29:03;;;;;;;8.98;3.75;;;13.10;99.90;;;;;;6195937;23;20012;-69
2023/08/10 04:31:28;;;;;;;5.97;3.85;;;13.20;99.90;;;;;;6193594;23;20011;-69
2023/08/10 04:33:54;;;;;;;7.82;3.88;;;13.10;99.90;;;;;;6191472;23;20024;-69
2023/08/10 04:36:20;;;;;;;5.80;3.40;;;13.20;99.90;;;;;;6191311;23;20004;-69
2023/08/10 04:38:45;;;;;;;7.75;4.20;;;13.20;99.90;;;;;;6195670;23;20062;-69
2023/08/10 04:41:11;;;;;;;7.90;4.03;;;13.20;99.90;;;;;;6195661;23;20013;-69
2023/08/10 04:43:36;;;;;;;8.43;4.32;;;13.30;99.90;;;;;;6196041;23;20087;-69
2023/08/10 04:46:02;;;;;;;10.40;4.55;;;13.30;99.90;;;;;;6196020;23;20076;-68
2023/08/10 04:48:28;;;;;;;10.20;4.50;;;13.40;99.90;;;;;;6195346;23;20031;-69
2023/08/10 04:50:53;;;;;;;8.30;4.25;;;13.50;99.90;;;;;;6168891;23;20004;-69
2023/08/10 04:53:19;;;;;;;14.20;4.97;;;13.50;99.90;;;;;;6196942;23;20306;-69
2023/08/10 04:55:44;;;;;;;8.63;4.15;;;13.60;99.90;;;;;;6195681;23;20534;-69
2023/08/10 04:58:10;;;;;;;12.45;5.03;;;13.70;99.90;;;;;;6195251;23;20016;-69
2023/08/10 05:00:36;;;;;;;11.52;4.35;;;13.70;99.90;;;;;;6193179;23;20429;-69
2023/08/10 05:03:01;;;;;;;11.05;4.70;;;13.80;99.90;;;;;;6193163;23;20376;-69
2023/08/10 05:05:27;;;;;;;9.93;4.30;;;13.80;99.90;;;;;;6191108;23;20423;-69
2023/08/10 05:07:52;;;;;;;10.80;4.45;;;13.90;99.90;;;;;;6191318;23;20405;-69
2023/08/10 05:10:18;;;;;;;9.40;4.40;;;13.90;99.90;;;;;;6191393;23;20252;-69
2023/08/10 05:12:44;;;;;;;8.23;3.83;;;14.00;99.90;;;;;;6195974;23;20409;-69
2023/08/10 05:15:10;;;;;;;11.30;4.20;;;14.00;99.90;;;;;;6194415;23;20016;-69
2023/08/10 05:17:38;;;;;;;8.85;4.38;;;14.10;99.90;;;;;;6192545;23;20072;-69
2023/08/10 05:20:10;;;;;;;10.27;4.38;;;14.20;99.90;;;;;;6189133;23;20016;-69
2023/08/10 05:22:37;;;;;;;9.70;4.90;;;14.20;99.90;;;;;;6191773;23;20005;-69
2023/08/10 05:25:04;;;;;;;10.82;4.43;;;14.30;99.90;;;;;;6191591;23;20030;-69
2023/08/10 05:27:29;;;;;;;8.75;3.90;;;14.40;99.90;;;;;;6168115;23;20043;-69
2023/08/10 05:29:55;;;;;;;9.57;3.78;;;14.30;99.90;;;;;;6193623;23;20083;-70
2023/08/10 05:32:21;;;;;;;10.88;4.15;;;14.40;99.90;;;;;;6194425;23;20001;-69
2023/08/10 05:34:47;;;;;;;10.80;3.80;;;14.40;99.90;;;;;;6193865;23;20022;-69
2023/08/10 05:37:13;;;;;;;9.80;3.83;;;14.40;99.90;;;;;;6190760;23;20021;-69
2023/08/10 05:39:39;;;;;;;5.85;3.08;;;14.50;99.90;;;;;;6191442;23;20098;-69
2023/08/10 05:42:05;;;;;;;6.07;3.42;;;14.50;99.90;;;;;;6192051;23;20055;-69
2023/08/10 05:44:31;;;;;;;10.20;3.40;;;14.70;99.90;;;;;;6190911;23;20027;-69
2023/08/10 05:46:56;;;;;;;5.22;3.10;;;14.70;99.90;;;;;;6194940;23;20012;-69
2023/08/10 05:49:22;;;;;;;6.30;3.22;;;14.80;99.90;;;;;;6194057;23;20455;-69
2023/08/10 05:51:48;;;;;;;7.47;3.45;;;15.00;99.90;;;;;;6193941;23;20012;-69
2023/08/10 05:54:14;;;;;;;8.65;3.53;;;15.10;99.90;;;;;;6195103;23;20042;-69
2023/08/10 05:56:40;;;;;;;8.73;3.35;;;15.20;99.90;;;;;;6169001;23;20004;-69
2023/08/10 05:59:05;;;;;;;6.28;3.53;;;15.40;99.90;;;;;;6195808;23;20039;-69
2023/08/10 06:01:31;;;;;;;8.93;3.20;;;15.40;99.90;;;;;;6191785;23;20253;-69
2023/08/10 06:03:57;;;;;;;7.70;3.55;;;15.60;99.90;;;;;;6190218;23;20009;-70
2023/08/10 06:06:22;;;;;;;11.55;2.80;;;15.60;99.90;;;;;;6162448;23;20436;-69
2023/08/10 06:08:48;;;;;;;5.85;3.25;;;15.80;99.90;;;;;;6194709;23;20012;-69
2023/08/10 06:11:14;;;;;;;7.00;3.80;;;15.80;99.90;;;;;;6192216;23;20024;-69
2023/08/10 06:13:41;;;;;;;5.25;3.25;;;15.90;99.90;;;;;;6194081;23;20451;-69
2023/08/10 06:16:07;;;;;;;6.53;2.95;;;16.10;99.90;;;;;;6191394;23;20009;-69
2023/08/10 06:18:34;;;;;;;8.25;3.20;;;16.30;99.90;;;;;;6191130;23;20015;-69
2023/08/10 06:21:06;;;;;;;8.52;3.47;;;16.50;99.90;;;;;;6189008;23;20098;-70
2023/08/10 06:23:33;;;;;;;6.65;3.50;;;16.70;99.90;;;;;;6159354;23;20016;-70
2023/08/10 06:26:00;;;;;;;10.95;2.88;;;16.90;99.90;;;;;;6160932;23;20008;-70
2023/08/10 06:28:26;;;;;;;7.95;3.95;;;17.20;99.90;;;;;;6190379;23;20001;-70
2023/08/10 06:30:51;;;;;;;8.07;3.95;;;17.40;99.90;;;;;;6188497;23;20679;-70
2023/08/10 06:33:17;;;;;;;6.97;3.50;;;17.60;99.90;;;;;;6163351;23;20087;-70
2023/08/10 06:35:43;;;;;;;7.47;4.03;;;17.90;99.90;;;;;;6189422;23;20008;-70
2023/08/10 06:38:09;;;;;;;7.60;4.47;;;18.20;99.90;;;;;;6186399;23;20401;-70
2023/08/10 06:40:35;;;;;;;11.10;5.10;;;18.50;99.90;;;;;;6184787;23;20017;-70
2023/08/10 06:43:00;;;;;;;8.63;4.70;;;18.70;99.90;;;;;;6188870;23;20021;-70
2023/08/10 06:45:26;;;;;;;9.90;5.45;;;18.90;99.90;;;;;;6190637;23;20484;-70
2023/08/10 06:47:51;;;;;;;10.77;6.25;;;19.20;99.90;;;;;;6196854;23;20094;-70
2023/08/10 06:50:17;;;;;;;11.85;6.78;;;19.50;99.90;;;;;;6191295;23;20429;-70
2023/08/10 06:52:45;;;;;;;10.38;6.05;;;19.80;99.90;;;;;;6189479;23;20118;-70
2023/08/10 06:55:13;;;;;;;8.77;5.97;;;19.90;99.90;;;;;;6193099;23;20368;-70
2023/08/10 06:57:39;;;;;;;14.02;7.32;;;19.90;99.90;;;;;;6197725;23;20001;-70
2023/08/10 07:00:07;;;;;;;12.50;7.25;;;19.60;99.90;;;;;;6195698;23;20130;-70
2023/08/10 07:02:33;;;;;;;11.65;7.13;;;19.20;99.90;;;;;;6193667;23;20164;-71
2023/08/10 07:04:59;;;;;;;12.20;6.72;;;18.80;99.90;;;;;;6161428;23;20085;-71
2023/08/10 07:07:24;;;;;;;9.88;5.93;;;18.90;99.90;;;;;;6190329;23;20413;-72
2023/08/10 07:09:50;;;;;;;11.70;6.90;;;18.70;99.90;;;;;;6194099;23;20011;-74
2023/08/10 07:12:17;;;;;;;15.85;6.50;;;18.40;99.90;;;;;;6196376;23;20063;-75
2023/08/10 07:14:43;;;;;;;11.60;6.53;;;18.30;99.90;;;;;;6195937;23;20138;-73
2023/08/10 07:17:08;;;;;;;13.43;7.30;;;18.10;99.90;;;;;;6169827;23;20063;-72
2023/08/10 07:19:35;;;;;;;12.52;7.38;;;18.00;99.90;;;;;;6167593;23;20349;-74
2023/08/10 07:22:01;;;;;;;11.63;7.25;;;18.00;99.90;;;;;;6166512;23;20011;-74
2023/08/10 07:24:27;;;;;;;11.40;7.07;;;18.00;99.90;;;;;;6167113;23;20412;-74
2023/08/10 07:26:54;;;;;;;9.68;6.80;;;18.10;99.90;;;;;;6194990;23;20036;-71
2023/08/10 07:29:19;;;;;;;11.23;6.68;;;18.10;99.90;;;;;;6194704;23;20000;-75
2023/08/10 07:31:46;;;;;;;10.52;7.28;;;18.20;99.90;;;;;;6194834;23;20065;-75
2023/08/10 07:34:12;;;;;;;13.50;7.20;;;18.30;99.90;;;;;;6192270;23;20448;-79
2023/08/10 07:36:37;;;;;;;10.30;6.63;;;18.40;99.90;;;;;;6169526;23;20017;-75
2023/08/10 07:39:03;;;;;;;9.43;6.35;;;18.50;99.90;;;;;;6166306;23;20113;-76
2023/08/10 07:41:29;;;;;;;9.60;6.88;;;18.80;99.90;;;;;;6192003;23;20012;-72
2023/08/10 07:43:55;;;;;;;9.18;6.60;;;19.00;99.90;;;;;;6192007;23;20420;-72
2023/08/10 07:46:20;;;;;;;9.27;5.63;;;19.20;99.90;;;;;;6195506;23;20011;-72
2023/08/10 07:48:46;;;;;;;9.10;5.93;;;19.50;99.90;;;;;;6196168;23;20019;-70
2023/08/10 07:51:12;;;;;;;8.18;5.60;;;20.00;99.90;;;;;;6196593;23;20039;-72
2023/08/10 07:53:38;;;;;;;8.70;5.35;;;21.20;99.90;;;;;;6193726;23;20004;-73
2023/08/10 07:56:03;;;;;;;7.18;4.63;;;22.10;99.90;;;;;;6190435;23;20422;-72
2023/08/10 07:58:29;;;;;;;6.72;3.70;;;24.70;99.90;;;;;;6189885;23;20012;-68
2023/08/10 08:00:55;;;;;;;6.88;3.45;;;27.70;99.90;;;;;;6192585;23;20044;-69
2023/08/10 08:03:21;;;;;;;5.55;3.22;;;30.10;99.90;;;;;;6193169;23;20008;-70
2023/08/10 08:05:47;;;;;;;3.55;2.72;;;32.40;90.90;;;;;;6193422;23;20015;-69
2023/08/10 08:08:13;;;;;;;3.72;2.40;;;34.10;79.20;;;;;;6195525;23;20006;-68
2023/08/10 08:10:39;;;;;;;3.13;2.10;;;35.50;71.40;;;;;;6194933;23;20141;-69
2023/08/10 08:13:06;;;;;;;3.10;1.50;;;36.80;58.20;;;;;;6194988;23;20008;-69
2023/08/10 08:15:33;;;;;;;2.42;1.40;;;37.90;57.60;;;;;;6190159;23;20192;-69
2023/08/10 08:18:37;;;;;;;4.57;1.80;;;38.40;51.20;;;;;;6192832;23;20011;-68
2023/08/10 08:21:04;;;;;;;1.58;1.10;;;38.10;51.30;;;;;;6192177;23;20088;-68
2023/08/10 08:23:29;;;;;;;3.63;1.30;;;38.50;52.90;;;;;;6190371;23;20004;-69
2023/08/10 08:25:55;;;;;;;2.97;1.40;;;38.50;49.20;;;;;;6187863;23;20054;-69
2023/08/10 08:28:22;;;;;;;2.85;1.00;;;39.10;46.80;;;;;;6186997;23;20417;-69
2023/08/10 08:30:48;;;;;;;2.38;1.08;;;39.50;47.10;;;;;;6182279;23;20011;-69
2023/08/10 08:33:13;;;;;;;2.15;1.08;;;40.60;47.30;;;;;;6189508;23;20437;-68
2023/08/10 08:35:43;;;;;;;1.85;0.93;;;40.90;45.40;;;;;;6185139;23;20004;-69
2023/08/10 08:38:09;;;;;;;;;;;41.40;42.60;;;;;;6186805;23;20079;-69
2023/08/10 08:40:35;;;;;;;4.18;1.27;;;41.80;43.20;;;;;;6184245;23;20011;-69
2023/08/10 08:43:03;;;;;;;1.90;1.02;;;42.60;40.90;;;;;;6160652;23;20071;-72
2023/08/10 08:45:29;;;;;;;2.13;1.30;;;43.30;41.20;;;;;;6185296;23;20015;-69
2023/08/10 08:47:56;;;;;;;3.97;1.58;;;43.20;38.90;;;;;;6186260;23;20001;-69
2023/08/10 08:50:23;;;;;;;4.50;1.27;;;42.70;37.20;;;;;;6187793;23;20036;-70
2023/08/10 08:52:50;;;;;;;1.83;1.10;;;41.30;38.10;;;;;;6185165;23;20099;-68
2023/08/10 08:55:16;;;;;;;2.08;1.00;;;40.30;41.90;;;;;;6187911;23;20100;-68
2023/08/10 08:57:42;;;;;;;2.83;1.08;;;39.80;43.30;;;;;;6189249;23;20088;-68
2023/08/10 09:00:08;;;;;;;2.58;1.10;;;40.10;42.60;;;;;;6193815;23;20016;-68
2023/08/10 09:02:35;;;;;;;2.95;1.00;;;40.70;41.10;;;;;;6169073;23;20490;-68
2023/08/10 09:05:01;;;;;;;4.32;1.10;;;41.60;40.00;;;;;;6193141;23;20019;-68
2023/08/10 09:07:28;;;;;;;4.07;1.20;;;42.80;39.10;;;;;;6164412;23;20145;-68
2023/08/10 09:09:55;;;;;;;1.92;1.00;;;43.40;36.40;;;;;;6193272;23;20012;-68
2023/08/10 09:12:30;;;;;;;2.28;0.90;;;43.70;38.10;;;;;;6193976;23;20004;-68
2023/08/10 09:15:04;;;;;;;4.05;1.10;;;43.30;39.10;;;;;;6185900;23;20129;-68
2023/08/10 09:17:39;;;;;;;3.63;1.08;;;44.00;39.10;;;;;;6158402;23;20011;-68
2023/08/10 09:20:08;;;;;;;1.88;0.95;;;44.70;36.10;;;;;;6185475;23;20115;-69
2023/08/10 09:22:34;;;;;;;;;;;45.60;35.60;;;;;;6184586;23;20092;-69
2023/08/10 09:25:01;;;;;;;3.08;0.90;;;44.80;33.00;;;;;;6189746;23;19986;-69
2023/08/10 09:27:28;;;;;;;2.42;1.00;;;43.80;34.90;;;;;;6191594;23;20082;-68
2023/08/10 09:29:59;;;;;;;4.40;0.80;;;42.70;32.90;;;;;;6192883;23;20452;-69
2023/08/10 09:32:24;;;;;;;3.40;1.00;;;40.80;33.70;;;;;;6190906;23;20005;-69
2023/08/10 09:34:51;;;;;;;2.15;0.90;;;37.50;37.30;;;;;;6186476;23;20055;-68
2023/08/10 09:37:17;;;;;;;2.40;0.90;;;36.00;41.80;;;;;;6186415;23;20335;-68
2023/08/10 09:39:43;;;;;;;4.25;1.08;;;34.10;44.40;;;;;;6185739;23;20012;-68
2023/08/10 09:42:09;;;;;;;3.80;1.10;;;32.50;47.50;;;;;;6159758;23;20004;-68
2023/08/10 09:44:51;;;;;;;2.88;0.98;;;31.30;50.50;;;;;;6189855;23;20066;-69
2023/08/10 09:47:19;;;;;;;4.45;1.20;;;30.40;49.90;;;;;;6191663;23;20081;-68
2023/08/10 09:49:55;;;;;;;2.13;1.10;;;29.80;52.30;;;;;;6189776;23;20005;-68
2023/08/10 09:52:22;;;;;;;3.63;1.13;;;29.00;53.90;;;;;;6189635;23;20004;-68
2023/08/10 09:54:50;;;;;;;3.80;1.02;;;28.70;54.90;;;;;;6188580;23;20601;-68
2023/08/10 09:57:17;;;;;;;6.22;1.20;;;28.70;58.40;;;;;;6192089;23;20001;-68
2023/08/10 09:59:43;;;;;;;4.05;1.02;;;29.20;58.20;;;;;;6192700;23;20058;-68
2023/08/10 10:02:10;;;;;;;1.73;1.17;;;29.70;56.50;;;;;;6189500;23;20009;-68
2023/08/10 10:04:37;;;;;;;4.45;1.02;;;30.30;57.80;;;;;;6190053;23;20032;-67
2023/08/10 10:07:03;;;;;;;3.30;1.30;;;31.00;56.00;;;;;;6186037;23;20027;-68
2023/08/10 10:09:30;;;;;;;2.45;1.10;;;31.40;54.80;;;;;;6187226;23;20008;-69
2023/08/10 10:11:59;;;;;;;2.00;1.20;;;32.10;51.60;;;;;;6186277;23;20064;-68
2023/08/10 10:14:26;;;;;;;7.17;1.67;;;32.30;55.40;;;;;;6154672;23;20043;-69
2023/08/10 10:16:53;;;;;;;3.95;0.77;;;32.50;52.40;;;;;;6186291;23;20009;-68
2023/08/10 10:19:19;;;;;;;2.60;1.00;;;32.50;52.80;;;;;;6184849;23;20017;-69
2023/08/10 10:21:45;;;;;;;3.20;1.00;;;32.40;52.40;;;;;;6188450;23;20155;-68
2023/08/10 10:24:14;;;;;;;3.53;1.00;;;31.50;54.20;;;;;;6189013;23;20019;-68
2023/08/10 10:27:05;;;;;;;3.05;1.13;;;30.80;55.90;;;;;;6189790;23;20008;-68
2023/08/10 10:29:49;;;;;;;2.35;1.13;;;30.20;58.10;;;;;;6188179;23;20078;-68
2023/08/10 10:32:16;;;;;;;4.60;1.23;;;30.10;56.80;;;;;;6189280;23;20012;-68
2023/08/10 10:34:44;;;;;;;2.63;0.98;;;31.60;58.90;;;;;;6190780;23;20013;-68
2023/08/10 10:37:16;;;;;;;2.58;1.13;;;34.70;53.30;;;;;;6191839;23;20011;-68
2023/08/10 10:39:50;;;;;;;4.72;1.00;;;37.80;46.20;;;;;;6190931;23;20012;-68
2023/08/10 10:42:17;;;;;;;1.92;0.93;;;39.10;45.60;;;;;;6165309;23;20100;-68
2023/08/10 10:45:14;;;;;;;3.80;1.35;;;39.80;42.10;;;;;;6190837;23;20047;-68
2023/08/10 10:47:49;;;;;;;1.98;1.13;;;40.90;40.90;;;;;;6192005;23;20004;-69
2023/08/10 10:50:16;;;;;;;4.38;0.98;;;42.00;39.30;;;;;;6188362;23;20345;-69
2023/08/10 10:52:54;;;;;;;3.38;1.10;;;43.50;39.50;;;;;;6189055;23;20341;-68
2023/08/10 10:55:33;;;;;;;2.13;0.98;;;44.00;37.40;;;;;;6191311;23;20086;-68
2023/08/10 10:58:00;;;;;;;2.33;1.00;;;44.10;37.60;;;;;;6165185;23;20166;-69
2023/08/10 11:00:25;;;;;;;2.17;0.90;;;43.70;33.40;;;;;;6191744;23;20114;-69
2023/08/10 11:02:51;;;;;;;3.38;1.00;;;41.90;37.40;;;;;;6192509;23;20009;-68
2023/08/10 11:05:18;;;;;;;2.70;1.17;;;39.80;38.00;;;;;;6181394;23;20498;-69
2023/08/10 11:07:48;;;;;;;1.77;1.00;;;37.80;40.30;;;;;;6186998;23;20067;-69
2023/08/10 11:10:14;;;;;;;;;;;37.20;41.50;;;;;;6185135;23;20340;-69
2023/08/10 11:12:42;;;;;;;1.70;0.93;;;37.00;45.60;;;;;;6185404;23;20244;-68
2023/08/10 11:15:11;;;;;;;2.17;1.00;;;37.70;46.30;;;;;;6182159;23;20558;-69
2023/08/10 11:17:37;;;;;;;1.85;1.00;;;38.20;42.80;;;;;;6186980;23;20000;-68
2023/08/10 11:20:14;;;;;;;2.22;0.90;;;39.30;40.10;;;;;;6184635;23;20404;-69
2023/08/10 11:22:41;;;;;;;1.42;0.90;;;40.30;41.30;;;;;;6193235;23;20035;-68
2023/08/10 11:25:12;;;;;;;1.98;1.00;;;41.70;39.20;;;;;;6191233;23;20084;-68
2023/08/10 11:27:43;;;;;;;2.65;1.15;;;42.60;38.30;;;;;;6191209;23;20492;-68
2023/08/10 11:30:10;;;;;;;3.53;1.25;;;43.10;37.00;;;;;;6192324;23;20009;-68
2023/08/10 11:32:43;;;;;;;2.88;1.30;;;42.60;39.30;;;;;;6193235;23;20000;-68
2023/08/10 11:35:10;;;;;;;3.08;1.30;;;40.40;39.90;;;;;;6195624;23;20008;-68
2023/08/10 11:37:41;;;;;;;2.95;1.10;;;39.10;39.70;;;;;;6196780;23;20038;-68
2023/08/10 11:40:11;;;;;;;1.73;1.13;;;38.10;43.50;;;;;;6196431;23;20098;-68
2023/08/10 11:42:37;;;;;;;2.90;1.35;;;37.30;44.80;;;;;;6196538;23;20443;-68
2023/08/10 11:45:10;;;;;;;3.15;1.27;;;36.20;44.80;;;;;;6196040;23;20332;-68
2023/08/10 11:47:44;;;;;;;2.70;1.20;;;35.50;45.30;;;;;;6195090;23;20004;-68
2023/08/10 11:50:13;;;;;;;1.75;1.10;;;34.60;45.60;;;;;;6195975;23;20007;-68
2023/08/10 11:52:39;;;;;;;4.63;1.38;;;34.20;48.00;;;;;;6197858;23;20028;-68
2023/08/10 11:55:13;;;;;;;3.78;1.42;;;33.70;48.90;;;;;;6196605;23;20015;-68
2023/08/10 11:57:43;;;;;;;2.90;1.60;;;33.00;48.20;;;;;;6197520;23;20019;-68
2023/08/10 12:00:22;;;;;;;2.90;1.48;;;32.30;52.40;;;;;;6197424;23;20016;-69
2023/08/10 12:03:06;;;;;;;2.60;1.45;;;31.60;52.90;;;;;;6197552;23;20004;-68
2023/08/10 12:05:52;;;;;;;2.55;1.48;;;30.90;52.00;;;;;;6196259;23;20431;-68
2023/08/10 12:08:23;;;;;;;3.70;1.60;;;30.50;57.90;;;;;;6196458;23;20018;-68
2023/08/10 12:10:58;;;;;;;3.33;1.55;;;30.40;57.30;;;;;;6196583;23;20001;-68
2023/08/10 12:13:24;;;;;;;4.05;1.30;;;30.40;60.80;;;;;;6194299;23;20016;-67
2023/08/10 12:15:51;;;;;;;2.65;1.58;;;30.60;60.90;;;;;;6194615;23;20075;-68
2023/08/10 12:18:19;;;;;;;4.35;1.60;;;30.60;58.80;;;;;;6194029;23;20005;-69
2023/08/10 12:20:46;;;;;;;3.47;2.03;;;30.40;54.80;;;;;;6190816;23;20016;-68
2023/08/10 12:23:13;;;;;;;3.30;1.40;;;30.20;54.80;;;;;;6195356;23;20079;-68
2023/08/10 12:25:40;;;;;;;3.40;1.33;;;30.10;56.20;;;;;;6191347;23;20474;-69
2023/08/10 12:28:06;;;;;;;2.45;1.30;;;29.80;57.90;;;;;;6190943;23;20040;-68
2023/08/10 12:30:33;;;;;;;5.43;1.80;;;30.10;62.70;;;;;;6163469;23;20237;-68
2023/08/10 12:32:59;;;;;;;4.20;1.80;;;29.70;59.00;;;;;;6190691;23;20387;-68
2023/08/10 12:35:26;;;;;;;2.97;1.88;;;29.60;61.00;;;;;;6191569;23;20432;-68
2023/08/10 12:37:51;;;;;;;4.47;1.50;;;29.70;58.60;;;;;;6196763;23;20019;-68
2023/08/10 12:40:17;;;;;;;1.63;1.40;;;29.60;57.80;;;;;;6197162;23;20016;-68
2023/08/10 12:42:44;;;;;;;3.78;1.50;;;29.40;67.50;;;;;;6196395;23;20013;-68
2023/08/10 12:45:11;;;;;;;2.42;1.60;;;29.40;63.50;;;;;;6193593;23;20008;-68
2023/08/10 12:47:41;;;;;;;2.65;1.20;;;29.60;62.00;;;;;;6190798;23;20035;-68